ESSV

Visby Airport

Visby, Sweden
METAR ESSV 120920Z 03009KT 9999 -RA FEW009 BKN012 02/01 Q1027 R03/29//65
Observed Flight Rules
Dec-12 @ 09:20 UTC (28 minutes ago) Marginal Visual Flight Rules
Wind Visibility Clouds Conditions
30° at 9 knots 10,000+ meters
  • Few at 900' AGL
  • Broken at 1,200' AGL
  • Light Rain
Temperatures Readings
Current 2°C / 36°F
Dewpoint 1°C / 34°F
Humidity 93%
Altimeter 30.32" Hg
Pressure 1027 hPa
Elevation 47
METAR ESSV 120920Z 03009KT 9999 -RA FEW009 BKN012 02/01 Q1027 R03/29//65
Observed Flight Rules
Dec-12 @ 09:20 UTC
(28 minutes ago)
MVFR
Wind Visibility
30° at 9 knots 10,000+ meters
Clouds
  • Few at 900' AGL
  • Broken at 1,200' AGL
Conditions
  • Light Rain
Temperature Dewpoint
2°C / 36°F 1°C / 34°F
Humidity Altimeter Pressure
93% 30.32" Hg 1027 hPa